Time;durP1;ratioP1;P1;durP2;ratioP2;P2;SDS_P1;SDS_P2;PMS_P1;PMS_P2;Temp;Humidity;BMP_temperature;BMP_pressure;BME280_temperature;BME280_humidity;BME280_pressure;Samples;Min_cycle;Max_cycle;Signal;HPM_P1;HPM_P2
2021/09/30 00:00:57;;;;;;;5.30;0.88;;;10.30;99.90;;;;;;5070959;28;20371;-67
2021/09/30 00:03:23;;;;;;;6.22;1.10;;;10.30;99.90;;;;;;5069351;28;20041;-67
2021/09/30 00:05:49;;;;;;;6.13;1.00;;;10.30;99.90;;;;;;5067904;28;20037;-67
2021/09/30 00:08:15;;;;;;;4.63;0.75;;;10.30;99.90;;;;;;5070445;28;20526;-67
2021/09/30 00:10:53;;;;;;;5.13;0.90;;;10.30;99.90;;;;;;5071087;28;20036;-67
2021/09/30 00:34:51;;;;;;;3.47;0.98;;;10.20;99.90;;;;;;5050959;28;20050;-67
2021/09/30 00:40:17;;;;;;;7.70;1.08;;;10.10;99.90;;;;;;5069592;28;20056;-67
2021/09/30 00:45:39;;;;;;;5.15;1.45;;;10.00;99.90;;;;;;5062654;28;20059;-67
2021/09/30 00:48:13;;;;;;;8.80;1.77;;;9.90;99.90;;;;;;5068617;28;20090;-67
2021/09/30 00:53:39;;;;;;;6.95;1.10;;;9.70;99.90;;;;;;5067470;28;20044;-67
2021/09/30 01:32:11;;;;;;;5.20;1.35;;;8.90;99.90;;;;;;5069086;28;20076;-67
2021/09/30 03:00:31;;;;;;;8.38;0.88;;;8.60;99.90;;;;;;5066375;28;20055;-67
2021/09/30 03:03:00;;;;;;;12.95;1.00;;;8.60;99.90;;;;;;5069512;28;20033;-67
2021/09/30 03:05:26;;;;;;;4.15;0.80;;;8.60;99.90;;;;;;5070491;28;20105;-67
2021/09/30 03:07:54;;;;;;;4.63;1.55;;;8.70;99.90;;;;;;5052066;28;20486;-67
2021/09/30 03:10:23;;;;;;;7.35;0.90;;;8.70;99.90;;;;;;5070030;28;20036;-67
2021/09/30 03:12:51;;;;;;;5.03;0.80;;;8.60;99.90;;;;;;5068617;28;20049;-67
2021/09/30 03:15:42;;;;;;;7.97;0.80;;;8.60;99.90;;;;;;5040051;28;20044;-67
2021/09/30 03:20:49;;;;;;;4.78;0.93;;;8.60;99.90;;;;;;5071179;28;20048;-67
2021/09/30 03:23:20;;;;;;;10.32;1.52;;;8.60;99.90;;;;;;5046759;28;20060;-67
2021/09/30 03:25:49;;;;;;;6.78;0.90;;;8.60;99.90;;;;;;5064397;28;20040;-67
2021/09/30 03:28:17;;;;;;;4.38;0.80;;;8.60;99.90;;;;;;5070568;28;20076;-67
2021/09/30 03:30:44;;;;;;;8.50;0.90;;;8.60;99.90;;;;;;5068793;28;20150;-67
2021/09/30 03:33:11;;;;;;;5.90;1.10;;;8.60;99.90;;;;;;5066661;28;20047;-67
2021/09/30 03:35:38;;;;;;;3.20;0.82;;;8.50;99.90;;;;;;5038070;28;20045;-67
2021/09/30 03:38:05;;;;;;;4.90;0.95;;;8.50;99.90;;;;;;5075584;23;20087;-69
2021/09/30 03:40:31;;;;;;;5.75;1.30;;;8.50;99.90;;;;;;5070133;28;20044;-69
2021/09/30 03:42:57;;;;;;;4.53;0.82;;;8.50;99.90;;;;;;5070577;28;20032;-69
2021/09/30 03:45:23;;;;;;;4.95;0.85;;;8.50;99.90;;;;;;5068944;28;20049;-69
2021/09/30 03:47:49;;;;;;;5.18;0.98;;;8.50;99.90;;;;;;5064239;28;20033;-68
2021/09/30 03:50:24;;;;;;;7.32;1.17;;;8.50;99.90;;;;;;5063610;28;20431;-68
2021/09/30 03:53:12;;;;;;;6.47;1.10;;;8.50;99.90;;;;;;5054194;28;20044;-68
2021/09/30 04:01:26;;;;;;;4.47;0.80;;;8.60;99.90;;;;;;5031085;28;20045;-69
2021/09/30 04:03:51;;;;;;;4.07;1.00;;;8.70;99.90;;;;;;5048341;28;20506;-69
2021/09/30 04:06:17;;;;;;;4.88;0.77;;;8.80;99.90;;;;;;5079057;28;20494;-68
2021/09/30 04:08:44;;;;;;;7.07;1.00;;;8.80;99.90;;;;;;5069892;28;20036;-69
2021/09/30 04:11:09;;;;;;;3.90;0.90;;;8.80;99.90;;;;;;5053508;28;20040;-69
2021/09/30 04:13:35;;;;;;;3.42;1.00;;;8.90;99.90;;;;;;5069882;28;20042;-68
2021/09/30 04:16:01;;;;;;;5.95;0.93;;;8.90;99.90;;;;;;5066449;28;20082;-69
2021/09/30 04:18:27;;;;;;;7.57;1.10;;;8.90;99.90;;;;;;5071881;28;20315;-69
2021/09/30 04:20:52;;;;;;;5.70;0.90;;;8.90;99.90;;;;;;5083790;28;20047;-69
2021/09/30 04:23:18;;;;;;;7.30;1.15;;;8.90;99.90;;;;;;5069149;28;20036;-68
2021/09/30 04:25:43;;;;;;;6.57;0.80;;;8.90;99.90;;;;;;5067047;28;20272;-68
2021/09/30 04:28:09;;;;;;;4.45;0.80;;;8.80;99.90;;;;;;5069411;28;20048;-69
2021/09/30 04:30:35;;;;;;;7.22;1.10;;;8.80;99.90;;;;;;5050197;28;20041;-69
2021/09/30 04:33:00;;;;;;;4.30;0.90;;;8.80;99.90;;;;;;5069170;28;20046;-68
2021/09/30 04:35:26;;;;;;;6.65;1.10;;;8.80;99.90;;;;;;5068998;28;20040;-69
2021/09/30 04:37:51;;;;;;;3.92;0.90;;;8.80;99.90;;;;;;5052586;28;20328;-69
2021/09/30 04:40:17;;;;;;;3.45;0.98;;;8.70;99.90;;;;;;5068693;28;20056;-69
2021/09/30 04:42:42;;;;;;;6.00;1.30;;;8.70;99.90;;;;;;5067686;28;20036;-69
2021/09/30 04:45:09;;;;;;;4.55;1.20;;;8.80;99.90;;;;;;5070851;28;20040;-69
2021/09/30 04:47:34;;;;;;;6.80;1.27;;;8.90;99.90;;;;;;5066648;28;20047;-69
2021/09/30 04:50:00;;;;;;;4.10;0.88;;;8.90;99.90;;;;;;5056833;28;20041;-69
2021/09/30 04:52:26;;;;;;;6.72;0.80;;;9.00;99.90;;;;;;5067233;28;20347;-69
2021/09/30 04:54:51;;;;;;;5.25;1.00;;;9.00;99.90;;;;;;5067275;28;20119;-70
2021/09/30 04:57:17;;;;;;;4.88;0.85;;;9.00;99.90;;;;;;5065802;28;20052;-70
2021/09/30 04:59:43;;;;;;;4.50;1.30;;;9.10;99.90;;;;;;5068695;28;20051;-70
2021/09/30 05:02:08;;;;;;;4.13;0.90;;;9.10;99.90;;;;;;5066761;28;20162;-70
2021/09/30 05:04:34;;;;;;;6.90;1.00;;;9.20;99.90;;;;;;5064096;28;20132;-70
2021/09/30 05:06:59;;;;;;;7.03;0.70;;;9.20;99.90;;;;;;5068690;28;20048;-70
2021/09/30 05:09:27;;;;;;;6.15;1.05;;;9.20;99.90;;;;;;5067550;28;20481;-70
2021/09/30 05:11:56;;;;;;;6.65;1.17;;;9.20;99.90;;;;;;5068763;28;20052;-70
2021/09/30 05:14:22;;;;;;;3.83;1.23;;;9.20;99.90;;;;;;5068075;28;20040;-70
2021/09/30 05:16:49;;;;;;;5.45;1.30;;;9.20;99.90;;;;;;5065297;28;20417;-70
2021/09/30 05:19:15;;;;;;;3.72;1.10;;;9.30;99.90;;;;;;5066311;28;20051;-70
2021/09/30 05:21:41;;;;;;;7.40;1.92;;;9.30;99.90;;;;;;5066175;28;20072;-70
2021/09/30 05:24:07;;;;;;;6.97;1.73;;;9.30;99.90;;;;;;5066454;28;20043;-70
2021/09/30 05:26:32;;;;;;;6.95;1.73;;;9.40;99.90;;;;;;5067886;28;20040;-70
2021/09/30 05:29:00;;;;;;;7.22;2.25;;;9.40;99.90;;;;;;5068509;28;20040;-70
2021/09/30 05:31:26;;;;;;;4.47;2.00;;;9.30;99.90;;;;;;5068876;28;20463;-70
2021/09/30 05:33:52;;;;;;;7.00;2.38;;;9.30;99.90;;;;;;5050046;28;20056;-70
2021/09/30 05:36:18;;;;;;;8.00;2.22;;;9.40;99.90;;;;;;5068309;28;20427;-70
2021/09/30 05:38:44;;;;;;;12.00;3.85;;;9.30;99.90;;;;;;5067921;28;20049;-70
2021/09/30 05:41:10;;;;;;;11.38;4.03;;;9.30;99.90;;;;;;5068313;28;20162;-70
2021/09/30 05:43:38;;;;;;;10.32;4.07;;;9.30;99.90;;;;;;5069722;28;20045;-70
2021/09/30 05:46:05;;;;;;;13.48;5.75;;;9.30;99.90;;;;;;5068491;28;20037;-70
2021/09/30 05:48:30;;;;;;;17.30;6.63;;;9.30;99.90;;;;;;5063082;28;20036;-70
2021/09/30 05:50:56;;;;;;;15.07;7.30;;;9.30;99.90;;;;;;5050673;28;20381;-70
2021/09/30 05:53:23;;;;;;;19.10;8.38;;;9.30;99.90;;;;;;5068133;28;20402;-70
2021/09/30 05:55:49;;;;;;;21.27;9.65;;;9.30;99.90;;;;;;5050362;28;20071;-70
2021/09/30 05:58:15;;;;;;;24.77;11.43;;;9.30;99.90;;;;;;5067891;28;20367;-69
2021/09/30 06:01:00;;;;;;;26.25;12.32;;;9.40;99.90;;;;;;5063153;28;20045;-70
2021/09/30 06:11:54;;;;;;;35.22;16.27;;;9.20;99.90;;;;;;5073129;28;20182;-70
2021/09/30 06:14:23;;;;;;;39.85;17.50;;;9.30;99.90;;;;;;5057961;28;20044;-70
2021/09/30 06:16:51;;;;;;;39.53;18.90;;;9.20;99.90;;;;;;5067943;28;20504;-70
2021/09/30 06:19:20;;;;;;;43.47;20.13;;;9.30;99.90;;;;;;5051208;28;20040;-70
2021/09/30 06:21:51;;;;;;;33.53;18.63;;;9.30;99.90;;;;;;5055241;28;20111;-70
2021/09/30 06:24:18;;;;;;;35.63;17.08;;;9.60;99.90;;;;;;5071515;28;20173;-70
2021/09/30 06:26:44;;;;;;;34.55;18.67;;;10.40;99.90;;;;;;5071372;28;20486;-70
2021/09/30 06:29:09;;;;;;;34.72;18.20;;;11.00;99.90;;;;;;5055000;28;20045;-70
2021/09/30 06:31:35;;;;;;;32.50;17.63;;;11.50;99.90;;;;;;5073154;28;20490;-70
2021/09/30 06:34:01;;;;;;;33.10;17.38;;;12.10;99.90;;;;;;5070105;28;20485;-70
2021/09/30 06:36:27;;;;;;;33.78;17.50;;;12.60;99.90;;;;;;5071298;28;20516;-70
2021/09/30 06:38:53;;;;;;;33.05;16.48;;;12.90;99.90;;;;;;5066043;28;20052;-70
2021/09/30 06:41:18;;;;;;;32.38;17.02;;;13.30;99.90;;;;;;5048487;28;20049;-70
2021/09/30 06:43:44;;;;;;;31.65;16.90;;;13.60;99.90;;;;;;5060443;28;20064;-70
2021/09/30 06:46:09;;;;;;;34.22;16.90;;;14.00;99.90;;;;;;5065228;28;20051;-70
2021/09/30 06:48:35;;;;;;;24.27;13.35;;;14.20;99.90;;;;;;5052969;28;20037;-70
2021/09/30 06:51:00;;;;;;;27.40;14.23;;;14.90;99.90;;;;;;5059388;28;20028;-71
2021/09/30 06:53:26;;;;;;;23.80;13.10;;;15.00;99.90;;;;;;5070261;28;20102;-71
2021/09/30 06:55:52;;;;;;;29.00;13.65;;;15.40;99.90;;;;;;5060178;28;20048;-70
2021/09/30 06:58:23;;;;;;;29.45;13.80;;;15.50;99.90;;;;;;5039193;28;20045;-70
2021/09/30 07:00:49;;;;;;;24.42;12.05;;;15.90;99.90;;;;;;5052279;28;20190;-70
2021/09/30 07:03:14;;;;;;;23.13;11.63;;;16.10;99.90;;;;;;5064254;28;20051;-70
2021/09/30 07:05:40;;;;;;;21.10;11.00;;;16.30;99.90;;;;;;5070458;28;20378;-70
2021/09/30 07:08:07;;;;;;;22.55;11.43;;;16.60;99.90;;;;;;5053375;28;20037;-70
2021/09/30 07:10:32;;;;;;;19.75;10.23;;;16.40;99.90;;;;;;5068329;28;20310;-70
2021/09/30 07:12:58;;;;;;;19.30;10.32;;;16.30;99.90;;;;;;5067435;28;20036;-70
2021/09/30 07:15:24;;;;;;;20.67;9.85;;;16.00;99.90;;;;;;5071111;28;20048;-70
2021/09/30 07:17:49;;;;;;;19.23;9.27;;;15.30;99.90;;;;;;5052253;28;20071;-69
2021/09/30 07:20:15;;;;;;;21.00;9.68;;;14.80;99.90;;;;;;5070243;28;20071;-69
2021/09/30 07:22:41;;;;;;;21.23;10.63;;;14.40;99.90;;;;;;5059077;28;20033;-70
2021/09/30 07:25:07;;;;;;;17.70;9.25;;;13.90;99.90;;;;;;5058132;28;20045;-70
2021/09/30 07:27:34;;;;;;;21.27;9.40;;;13.80;99.90;;;;;;5068819;28;20040;-69
2021/09/30 07:29:59;;;;;;;18.63;8.60;;;13.60;99.90;;;;;;5064694;28;20478;-69
2021/09/30 07:32:25;;;;;;;16.73;8.20;;;13.50;99.90;;;;;;5068697;28;20052;-69
2021/09/30 07:34:51;;;;;;;21.88;9.73;;;13.40;99.90;;;;;;5068240;28;20401;-70
2021/09/30 07:37:17;;;;;;;21.45;8.93;;;13.20;99.90;;;;;;5066151;28;20052;-69
2021/09/30 07:39:43;;;;;;;22.13;9.00;;;13.10;99.90;;;;;;5068438;28;20047;-69
2021/09/30 07:42:09;;;;;;;21.75;8.60;;;13.00;99.90;;;;;;5069295;28;20040;-69
2021/09/30 07:44:36;;;;;;;19.13;7.95;;;12.90;99.90;;;;;;5070071;28;20533;-70
2021/09/30 07:47:04;;;;;;;20.17;8.13;;;12.70;99.90;;;;;;5071323;28;20134;-69
2021/09/30 07:49:30;;;;;;;19.52;7.40;;;12.70;99.90;;;;;;5053571;28;20131;-69
2021/09/30 07:51:56;;;;;;;18.38;7.03;;;12.70;99.90;;;;;;5055893;28;20037;-69
2021/09/30 07:54:22;;;;;;;20.27;7.13;;;12.70;99.90;;;;;;5068263;28;20051;-70
2021/09/30 07:56:47;;;;;;;20.15;6.65;;;12.80;99.90;;;;;;5070299;28;20331;-69
2021/09/30 07:59:13;;;;;;;15.38;5.93;;;12.80;99.90;;;;;;5070959;28;20557;-69
2021/09/30 08:01:38;;;;;;;16.35;5.63;;;12.90;99.90;;;;;;5068851;28;20040;-69
2021/09/30 08:04:04;;;;;;;13.30;5.13;;;13.00;99.90;;;;;;5056382;28;20117;-69
2021/09/30 08:06:30;;;;;;;13.15;4.93;;;13.10;99.90;;;;;;5069808;28;20237;-69
2021/09/30 08:08:56;;;;;;;9.45;3.28;;;13.10;99.90;;;;;;5068888;28;20481;-70
2021/09/30 08:11:23;;;;;;;7.28;2.83;;;13.10;99.90;;;;;;5069401;28;20543;-69
2021/09/30 08:13:49;;;;;;;6.95;2.58;;;13.10;99.90;;;;;;5068554;28;20036;-69
2021/09/30 08:16:18;;;;;;;7.88;2.20;;;13.10;99.90;;;;;;5068696;28;20044;-69
2021/09/30 08:18:44;;;;;;;6.85;2.17;;;13.10;99.90;;;;;;5069075;28;20115;-70
2021/09/30 08:21:12;;;;;;;6.85;1.83;;;13.20;99.90;;;;;;5069199;28;20152;-69
2021/09/30 08:23:39;;;;;;;5.72;2.10;;;13.40;99.90;;;;;;5069436;28;20045;-70
2021/09/30 08:26:04;;;;;;;7.60;2.17;;;13.40;99.90;;;;;;5069068;28;20064;-69
2021/09/30 08:28:30;;;;;;;8.57;2.60;;;13.60;99.90;;;;;;5069097;28;20402;-70
2021/09/30 08:30:56;;;;;;;5.50;2.42;;;13.90;99.90;;;;;;5052230;28;20044;-70
2021/09/30 08:33:24;;;;;;;9.13;4.57;;;13.90;99.90;;;;;;5064632;28;20088;-70
2021/09/30 08:35:50;;;;;;;9.38;4.28;;;13.80;99.90;;;;;;5051324;28;20040;-70
2021/09/30 08:38:16;;;;;;;7.63;2.95;;;13.80;99.90;;;;;;5050977;28;20106;-72
2021/09/30 08:40:42;;;;;;;7.38;1.77;;;13.90;99.90;;;;;;5061595;28;20041;-69
2021/09/30 08:43:07;;;;;;;6.15;2.30;;;13.90;99.90;;;;;;5058145;28;20583;-70
2021/09/30 08:45:33;;;;;;;9.00;4.20;;;13.90;99.90;;;;;;5068171;28;20128;-70
2021/09/30 08:48:05;;;;;;;6.80;1.60;;;14.00;99.90;;;;;;5046792;28;20036;-69
2021/09/30 08:50:37;;;;;;;6.18;1.55;;;14.00;99.90;;;;;;5069136;28;20044;-69
2021/09/30 08:53:05;;;;;;;4.65;1.65;;;14.10;99.90;;;;;;5053331;28;20044;-70
2021/09/30 08:55:30;;;;;;;4.35;1.60;;;14.10;99.90;;;;;;5066509;28;20111;-70
2021/09/30 08:57:56;;;;;;;7.43;1.50;;;14.20;99.90;;;;;;5064683;28;20123;-70
2021/09/30 09:00:22;;;;;;;5.50;1.88;;;14.30;99.90;;;;;;5056787;28;20091;-70
2021/09/30 09:02:52;;;;;;;8.55;1.73;;;14.30;99.90;;;;;;5063592;28;20405;-71
2021/09/30 09:05:21;;;;;;;6.05;1.40;;;14.30;99.90;;;;;;5067925;28;20078;-71
2021/09/30 09:07:51;;;;;;;5.97;1.80;;;14.40;99.90;;;;;;5062262;28;20036;-71
2021/09/30 09:10:20;;;;;;;5.85;1.38;;;14.50;99.90;;;;;;5062421;28;20036;-71
2021/09/30 09:12:46;;;;;;;6.93;1.30;;;14.50;99.90;;;;;;5068061;28;20044;-71
2021/09/30 09:15:11;;;;;;;3.38;1.10;;;14.50;99.90;;;;;;5064925;28;20033;-71
2021/09/30 09:17:40;;;;;;;9.20;1.70;;;14.40;99.90;;;;;;5064608;28;20116;-70
2021/09/30 09:20:06;;;;;;;6.40;1.40;;;14.40;99.90;;;;;;5071397;28;20475;-71
2021/09/30 09:22:34;;;;;;;5.85;1.40;;;14.40;99.90;;;;;;5065172;28;20415;-70
2021/09/30 09:25:06;;;;;;;4.90;1.20;;;14.50;99.90;;;;;;5066010;28;20048;-70
2021/09/30 09:27:55;;;;;;;5.30;1.13;;;14.50;99.90;;;;;;5064517;28;20055;-71
2021/09/30 09:30:32;;;;;;;4.55;1.30;;;14.60;99.90;;;;;;5068716;28;20060;-70
2021/09/30 09:33:22;;;;;;;7.05;1.40;;;14.60;99.90;;;;;;5063048;28;20043;-71
2021/09/30 09:36:03;;;;;;;6.47;1.13;;;14.70;99.90;;;;;;5064032;28;20103;-71
2021/09/30 09:38:31;;;;;;;6.13;1.58;;;14.60;99.90;;;;;;5063045;28;20075;-69
2021/09/30 09:41:05;;;;;;;6.38;1.10;;;14.60;99.90;;;;;;5059851;28;20047;-68
2021/09/30 09:43:39;;;;;;;4.70;1.13;;;14.60;99.90;;;;;;5061816;28;20385;-70
2021/09/30 09:46:06;;;;;;;5.53;1.35;;;14.70;99.90;;;;;;5062593;28;20460;-72
2021/09/30 09:48:33;;;;;;;7.72;1.35;;;14.80;99.90;;;;;;5049606;28;20551;-71
2021/09/30 09:51:02;;;;;;;6.55;1.20;;;14.70;99.90;;;;;;5063173;28;20390;-71
2021/09/30 09:53:29;;;;;;;4.82;1.10;;;14.70;99.90;;;;;;5042260;28;20493;-71
2021/09/30 09:56:16;;;;;;;3.75;1.05;;;14.60;99.90;;;;;;5068764;28;20048;-71
2021/09/30 09:58:48;;;;;;;4.47;1.10;;;14.50;99.90;;;;;;5070895;28;20115;-71
2021/09/30 10:01:14;;;;;;;8.77;2.00;;;14.60;99.90;;;;;;5061656;28;20041;-71
2021/09/30 10:03:49;;;;;;;7.75;2.10;;;14.40;99.90;;;;;;5069186;28;20378;-71
2021/09/30 10:06:16;;;;;;;5.68;1.10;;;14.40;99.90;;;;;;5053958;28;20113;-71
2021/09/30 10:08:42;;;;;;;7.30;1.52;;;14.50;99.90;;;;;;5061824;28;20463;-71
2021/09/30 10:11:07;;;;;;;6.60;1.98;;;14.50;99.90;;;;;;5066838;28;20363;-71
2021/09/30 10:13:37;;;;;;;7.13;1.55;;;14.60;99.90;;;;;;5069404;28;20126;-71
2021/09/30 10:16:03;;;;;;;5.13;1.02;;;14.70;99.90;;;;;;5069028;28;20046;-71
2021/09/30 10:18:29;;;;;;;4.68;1.58;;;14.70;99.90;;;;;;5064175;28;20044;-72
2021/09/30 10:20:59;;;;;;;4.88;1.38;;;14.80;99.90;;;;;;5053731;28;20049;-72
2021/09/30 10:23:35;;;;;;;4.50;1.52;;;15.00;99.90;;;;;;5043434;28;20040;-71
2021/09/30 10:26:44;;;;;;;6.88;1.38;;;15.20;99.90;;;;;;5059333;28;20046;-72
2021/09/30 10:29:10;;;;;;;6.13;1.50;;;15.20;99.90;;;;;;5046319;28;20579;-71
2021/09/30 10:31:37;;;;;;;7.75;1.50;;;15.40;99.90;;;;;;5053086;28;20048;-71
2021/09/30 10:34:08;;;;;;;5.68;1.17;;;15.40;99.90;;;;;;5066118;28;20049;-70
2021/09/30 10:36:39;;;;;;;9.50;1.65;;;15.60;99.90;;;;;;5048397;28;20052;-70
2021/09/30 10:39:23;;;;;;;10.35;1.50;;;15.60;99.90;;;;;;5066647;28;20662;-71
2021/09/30 10:41:53;;;;;;;8.55;1.80;;;15.80;99.90;;;;;;5064869;28;20045;-71
2021/09/30 10:44:22;;;;;;;6.85;1.10;;;15.90;99.90;;;;;;5064637;28;20045;-71
2021/09/30 10:46:49;;;;;;;5.72;1.48;;;15.90;99.90;;;;;;5067794;28;20123;-71
2021/09/30 10:49:33;;;;;;;7.57;1.58;;;16.00;99.90;;;;;;5067559;28;20059;-71
2021/09/30 10:52:17;;;;;;;7.32;1.70;;;16.00;99.90;;;;;;5053990;28;20535;-71
2021/09/30 10:54:54;;;;;;;9.30;1.67;;;15.90;99.90;;;;;;5055664;28;20495;-72
2021/09/30 10:57:37;;;;;;;7.68;1.73;;;16.00;99.90;;;;;;5062723;28;21379;-71
2021/09/30 11:00:31;;;;;;;7.13;1.40;;;16.20;99.90;;;;;;5067973;28;20098;-71
2021/09/30 11:02:59;;;;;;;9.50;1.70;;;16.30;99.90;;;;;;5066485;28;20044;-71
2021/09/30 11:05:26;;;;;;;6.03;1.83;;;16.50;99.90;;;;;;5051893;28;20496;-71
2021/09/30 11:08:16;;;;;;;5.75;1.30;;;16.50;99.90;;;;;;5062828;28;20032;-71
2021/09/30 11:11:05;;;;;;;7.07;2.00;;;16.40;99.90;;;;;;5051605;28;20041;-71
2021/09/30 11:13:35;;;;;;;3.42;1.08;;;16.20;99.90;;;;;;5064753;28;20059;-71
2021/09/30 11:16:08;;;;;;;10.30;1.77;;;16.00;99.90;;;;;;5049710;28;20379;-71
2021/09/30 11:18:50;;;;;;;6.50;1.27;;;15.80;99.90;;;;;;5064506;28;20080;-71
2021/09/30 11:21:28;;;;;;;5.55;1.38;;;16.00;99.90;;;;;;5067562;28;21324;-71
2021/09/30 11:23:54;;;;;;;3.35;1.27;;;16.10;99.90;;;;;;5059427;28;20091;-71
2021/09/30 11:26:19;;;;;;;3.53;1.17;;;16.00;99.90;;;;;;5069766;28;20119;-72
2021/09/30 11:28:45;;;;;;;5.47;1.15;;;16.10;99.90;;;;;;5048064;28;20123;-71
2021/09/30 11:31:25;;;;;;;3.30;0.90;;;16.00;99.90;;;;;;5069480;28;20102;-75
2021/09/30 11:33:52;;;;;;;4.95;1.30;;;15.80;99.90;;;;;;5063395;28;20907;-75
2021/09/30 11:36:18;;;;;;;6.88;1.45;;;15.80;99.90;;;;;;5060420;28;20094;-75
2021/09/30 11:38:46;;;;;;;4.00;1.27;;;15.70;99.90;;;;;;5064946;28;20032;-75
2021/09/30 11:41:12;;;;;;;4.63;1.20;;;15.60;99.90;;;;;;5065823;28;20040;-75
2021/09/30 11:43:39;;;;;;;4.80;0.90;;;15.60;99.90;;;;;;5066733;28;20045;-76
2021/09/30 11:46:33;;;;;;;4.47;1.33;;;15.60;99.90;;;;;;5060306;28;20124;-76
2021/09/30 11:49:07;;;;;;;5.10;1.67;;;15.70;99.90;;;;;;5061561;28;20037;-75
2021/09/30 11:51:37;;;;;;;5.85;1.42;;;15.70;99.90;;;;;;5062617;28;20037;-75
2021/09/30 11:54:05;;;;;;;5.60;1.30;;;15.70;99.90;;;;;;5060725;28;20049;-76
2021/09/30 11:56:38;;;;;;;4.38;1.17;;;15.90;99.90;;;;;;5063583;28;20051;-72
2021/09/30 11:59:06;;;;;;;5.05;1.10;;;16.00;99.90;;;;;;5065610;28;20044;-72
2021/09/30 12:01:44;;;;;;;2.88;0.88;;;15.90;99.80;;;;;;5064381;28;20059;-72
2021/09/30 12:04:12;;;;;;;4.65;1.05;;;15.90;99.90;;;;;;5061150;28;20041;-74
2021/09/30 12:06:43;;;;;;;3.47;0.90;;;16.10;99.90;;;;;;5068114;28;20054;-74
2021/09/30 12:09:10;;;;;;;4.38;1.15;;;16.20;99.90;;;;;;5061417;28;20040;-74
2021/09/30 12:11:37;;;;;;;5.85;1.10;;;16.40;99.90;;;;;;5065217;28;20467;-72
2021/09/30 12:14:08;;;;;;;4.22;1.60;;;16.50;99.90;;;;;;5057262;28;20086;-72
2021/09/30 12:16:51;;;;;;;5.07;1.10;;;16.60;99.90;;;;;;5055490;28;20477;-72
2021/09/30 12:19:36;;;;;;;6.40;1.30;;;16.80;99.90;;;;;;5060576;28;20032;-71
2021/09/30 12:22:08;;;;;;;4.15;0.95;;;17.00;99.90;;;;;;5065709;28;20044;-72
2021/09/30 12:24:35;;;;;;;4.70;0.90;;;17.00;99.90;;;;;;5064663;28;20041;-72
2021/09/30 12:27:04;;;;;;;2.45;0.80;;;17.00;99.90;;;;;;5061595;28;20067;-73
2021/09/30 12:29:37;;;;;;;5.00;1.10;;;17.00;99.40;;;;;;5063911;28;20048;-73
2021/09/30 12:32:05;;;;;;;4.40;1.20;;;16.90;99.90;;;;;;5068650;28;20044;-73
2021/09/30 12:34:31;;;;;;;4.97;1.10;;;16.80;99.90;;;;;;5068099;28;20101;-73
2021/09/30 12:36:56;;;;;;;4.82;1.20;;;16.70;99.20;;;;;;5066494;28;20489;-71
2021/09/30 12:39:24;;;;;;;4.78;1.17;;;16.70;99.90;;;;;;5052375;28;20143;-71
2021/09/30 12:41:50;;;;;;;5.85;1.10;;;17.00;99.90;;;;;;5065099;28;20040;-72
2021/09/30 12:44:16;;;;;;;6.43;1.40;;;17.10;99.50;;;;;;5048856;28;20080;-72
2021/09/30 12:46:43;;;;;;;4.70;1.20;;;17.20;99.90;;;;;;5045202;28;20080;-72
2021/09/30 12:49:09;;;;;;;8.20;1.60;;;17.00;99.90;;;;;;5070382;28;20037;-72
2021/09/30 12:51:35;;;;;;;3.78;1.20;;;17.00;99.90;;;;;;5066076;28;20478;-72
2021/09/30 12:54:00;;;;;;;5.57;1.30;;;17.00;99.90;;;;;;5062881;28;20492;-73
2021/09/30 12:56:32;;;;;;;5.78;1.35;;;16.90;99.90;;;;;;5047171;28;20428;-73
2021/09/30 12:59:11;;;;;;;10.98;1.70;;;16.80;99.90;;;;;;5065329;28;20042;-73
2021/09/30 13:01:37;;;;;;;6.07;1.33;;;16.80;99.90;;;;;;5061702;28;20032;-74
2021/09/30 13:04:07;;;;;;;4.45;1.42;;;16.70;99.90;;;;;;5059731;28;20190;-74
2021/09/30 13:06:33;;;;;;;5.35;1.27;;;16.70;99.90;;;;;;5061738;28;20044;-74
2021/09/30 13:08:58;;;;;;;7.40;1.50;;;16.70;99.90;;;;;;5061142;28;20037;-74
2021/09/30 13:11:33;;;;;;;7.30;1.60;;;16.60;99.90;;;;;;5064862;28;20099;-76
2021/09/30 13:14:28;;;;;;;7.10;1.55;;;16.60;99.90;;;;;;5070161;28;20079;-76
2021/09/30 13:16:56;;;;;;;6.18;1.60;;;16.50;99.90;;;;;;5063287;28;20059;-76
2021/09/30 13:19:41;;;;;;;5.00;1.73;;;16.50;99.90;;;;;;5051059;28;20045;-76
2021/09/30 13:22:07;;;;;;;5.60;1.75;;;16.40;99.90;;;;;;5053899;28;20053;-76
2021/09/30 13:24:35;;;;;;;7.05;1.30;;;16.40;99.90;;;;;;5049246;28;20048;-72
2021/09/30 13:27:04;;;;;;;5.25;1.55;;;16.30;99.90;;;;;;5057870;28;20032;-73
2021/09/30 13:29:30;;;;;;;7.15;1.55;;;16.40;99.90;;;;;;5063257;28;20600;-73
2021/09/30 13:31:56;;;;;;;5.22;1.17;;;16.10;99.90;;;;;;5067428;28;20044;-72
2021/09/30 13:34:23;;;;;;;5.65;1.60;;;16.30;99.90;;;;;;5057444;28;20452;-73
2021/09/30 13:36:49;;;;;;;5.22;1.25;;;16.20;99.90;;;;;;5063768;28;20086;-75
2021/09/30 13:39:17;;;;;;;4.18;1.63;;;16.00;99.90;;;;;;5068650;28;20040;-76
2021/09/30 13:41:43;;;;;;;4.03;1.20;;;15.90;99.90;;;;;;5060616;28;20395;-76
2021/09/30 13:44:09;;;;;;;8.77;1.42;;;15.80;99.90;;;;;;5052548;28;20507;-76
2021/09/30 13:46:35;;;;;;;5.82;1.10;;;15.60;99.90;;;;;;5067939;28;20076;-76
2021/09/30 13:49:01;;;;;;;5.38;1.10;;;15.50;99.90;;;;;;5071757;28;20043;-75
2021/09/30 13:51:31;;;;;;;7.90;1.38;;;15.40;99.90;;;;;;5067427;28;20072;-75
2021/09/30 13:53:58;;;;;;;4.65;1.45;;;15.30;99.90;;;;;;5063431;28;20456;-75
2021/09/30 13:56:25;;;;;;;8.25;1.48;;;15.20;99.90;;;;;;5070271;28;20049;-76
2021/09/30 13:58:50;;;;;;;6.65;1.40;;;15.20;99.90;;;;;;5067903;28;20040;-76
2021/09/30 14:01:17;;;;;;;5.18;1.00;;;15.00;99.90;;;;;;5068385;28;20569;-76
2021/09/30 14:03:43;;;;;;;5.63;1.10;;;15.00;99.90;;;;;;5058042;28;20033;-75
2021/09/30 14:06:09;;;;;;;6.28;1.52;;;14.90;99.90;;;;;;5069299;28;20074;-76
2021/09/30 14:08:40;;;;;;;3.65;1.00;;;15.00;99.90;;;;;;5069671;28;20041;-76
2021/09/30 14:11:07;;;;;;;6.28;1.20;;;14.90;99.90;;;;;;5072074;28;20032;-76
2021/09/30 14:13:33;;;;;;;5.47;1.20;;;14.80;99.90;;;;;;5069717;28;20079;-76
2021/09/30 14:15:58;;;;;;;5.20;1.30;;;14.70;99.90;;;;;;5067322;28;20461;-75
2021/09/30 14:18:24;;;;;;;2.63;0.80;;;14.70;99.90;;;;;;5063586;28;20052;-76
2021/09/30 14:20:51;;;;;;;5.97;1.42;;;14.60;99.90;;;;;;5064700;28;20083;-76
2021/09/30 14:23:17;;;;;;;7.03;1.98;;;14.60;99.90;;;;;;5057920;28;20431;-76
2021/09/30 14:25:43;;;;;;;4.55;1.85;;;14.60;99.90;;;;;;5071131;28;20044;-75
2021/09/30 14:28:09;;;;;;;5.45;1.85;;;14.70;99.90;;;;;;5070810;28;20513;-76
2021/09/30 14:30:34;;;;;;;7.15;1.90;;;14.70;99.90;;;;;;5072128;28;20289;-76
2021/09/30 14:33:00;;;;;;;5.53;1.40;;;14.50;99.90;;;;;;5068198;28;20036;-76
2021/09/30 14:35:25;;;;;;;6.15;1.33;;;14.40;99.90;;;;;;5070909;28;20036;-76
2021/09/30 14:37:51;;;;;;;3.83;1.25;;;14.30;99.90;;;;;;5067701;28;20504;-76
2021/09/30 14:40:16;;;;;;;7.15;1.40;;;14.40;99.90;;;;;;5065101;28;20466;-76
2021/09/30 14:42:43;;;;;;;5.85;1.38;;;14.40;99.90;;;;;;5055936;28;20128;-76
2021/09/30 14:45:09;;;;;;;5.97;1.52;;;14.40;99.90;;;;;;5069006;28;20045;-77
2021/09/30 14:47:35;;;;;;;5.15;1.52;;;14.30;99.90;;;;;;5067619;28;20063;-75
2021/09/30 14:50:00;;;;;;;5.13;1.67;;;14.30;99.90;;;;;;5070067;28;20036;-76
2021/09/30 14:52:26;;;;;;;7.70;1.80;;;14.30;99.90;;;;;;5035441;28;20120;-76
2021/09/30 14:54:52;;;;;;;4.85;1.45;;;14.20;99.90;;;;;;5067679;28;20382;-76
2021/09/30 14:57:18;;;;;;;4.53;1.45;;;14.20;99.90;;;;;;5064407;28;20041;-76
2021/09/30 14:59:44;;;;;;;6.22;1.83;;;14.20;99.90;;;;;;5068555;28;20032;-76
2021/09/30 15:02:10;;;;;;;7.35;2.35;;;14.30;99.90;;;;;;5066308;28;20039;-76
2021/09/30 15:04:37;;;;;;;5.10;2.20;;;14.30;99.90;;;;;;5069762;28;20043;-76
2021/09/30 15:07:03;;;;;;;5.63;1.85;;;14.30;99.90;;;;;;5063487;28;20044;-73
2021/09/30 15:09:29;;;;;;;3.83;1.10;;;14.20;99.90;;;;;;5069347;28;20044;-73
2021/09/30 15:11:54;;;;;;;7.30;1.95;;;14.20;99.90;;;;;;5067147;28;20155;-73
2021/09/30 15:14:20;;;;;;;4.60;1.55;;;14.20;99.90;;;;;;5063194;28;20131;-73
2021/09/30 15:19:26;;;;;;;5.65;1.95;;;14.20;99.90;;;;;;5066533;28;20047;-76
2021/09/30 15:21:52;;;;;;;6.78;1.83;;;14.10;99.90;;;;;;5065547;28;20417;-77
2021/09/30 15:24:19;;;;;;;5.82;2.65;;;14.10;99.90;;;;;;5064306;28;20410;-76
2021/09/30 15:26:47;;;;;;;6.68;2.20;;;14.10;99.90;;;;;;5061121;28;20044;-76
2021/09/30 15:29:17;;;;;;;3.65;1.65;;;14.00;99.90;;;;;;5056963;28;20057;-76
2021/09/30 15:31:43;;;;;;;7.07;1.92;;;14.00;99.90;;;;;;5070709;28;20121;-76
2021/09/30 15:34:11;;;;;;;3.63;1.50;;;14.00;99.90;;;;;;5070071;28;20127;-76
2021/09/30 15:36:37;;;;;;;5.28;1.70;;;14.00;99.90;;;;;;5053321;28;20110;-75
2021/09/30 15:39:06;;;;;;;7.10;2.13;;;13.90;99.90;;;;;;5066194;28;20772;-75
2021/09/30 15:41:33;;;;;;;7.00;1.98;;;13.90;99.90;;;;;;5065920;28;20205;-76
2021/09/30 15:43:59;;;;;;;4.10;1.63;;;13.90;99.90;;;;;;5065781;28;20071;-75